Terminal Aerodrome Forecast
Issued by NWS Amarillo, TX

Home | Current Version | Previous Version | Text Only | Print | Product List | Glossary On
Versions: 1 2 3 4 5 6 7 8 9 10 11 12 13 14 15 16
000
FTUS44 KAMA 041900 AAB
TAFDHT
TAF AMD
KDHT 041907Z 0419/0518 16015G24KT P6SM VCTS SCT040CB BKN100
     FM042200 16014G22KT 4SM TSRA OVC020CB
     FM050200 14014KT 5SM SHRA VCTS OVC015CB
     FM050500 16010KT 5SM SHRA OVC010
     FM051400 16016G26KT 5SM SHRA OVC010=

USA.gov is the U.S. government's official web portal to all federal, state and local government web resources and services.